SILO ALERT LOG


Silo ID Alert Type Alert Message Silo Type Points Depth (mm) Strength Temperature (°C) Humidity (%) Height (mm) Volume (㎥) Weight (t) Flag Time
DJSSD04 Temperature 온도센서 상태 이상 0 8200 0 -999 -999 -120 -16.702 0 31 2024-01-03 17:39:33.000
DJSSD11 Humidity 습도센서 측정값이 80% 초과 호퍼 446 7373 146 3 81 3856 29.256 15.945 0 2024-01-03 17:39:32.000
DJHNR01 Humidity 습도센서 측정값이 80% 초과 호퍼 471 4307 4929 6.8 99.9 11072 472.826 298.92 13 2024-01-03 17:39:32.000
DJSSD09 Temperature 온도센서 측정값이 0도 미만 106 2985 2962 -45.4 0 4694 653.424 413.095 11 2024-01-03 17:39:32.000
DJSAD18 Humidity 습도센서 측정값이 80% 초과 118 1416 5690 6.9 80.8 6163 613.709 387.987 11 2024-01-03 17:39:32.000
DJHNR06 Humidity 습도센서 측정값이 80% 초과 411 2704 2828 5.3 80.4 4975 708.04 447.623 0 2024-01-03 17:39:32.000
DJSSD05 Temperature 온도센서 측정값이 0도 미만 838 2551 4886 -45.4 43.7 5528 769.472 486.46 0 2024-01-03 17:39:32.000
DJHNR12 Humidity 습도센서 측정값이 80% 초과 호퍼 117 10860 54 3.6 82.5 -480 0 0 11 2024-01-03 17:39:30.000
DJSSD12 Temperature 온도센서 상태 이상 호퍼 0 11350 0 -999 -999 -120 0 0 31 2024-01-03 17:39:24.000
DJHNR03 Temperature 온도센서 상태 이상 호퍼 0 15500 0 -999 -999 -119 0 0 31 2024-01-03 17:39:23.000
DJHNR14 Humidity 습도센서 측정값이 80% 초과 호퍼 0 10500 124 2.9 99.9 -120 0 0 31 2024-01-03 17:39:21.000
DJSAD05 Humidity 습도센서 측정값이 80% 초과 478 1570 8947 4.5 81.7 7209 298.451 188.681 0 2024-01-03 16:39:40.000
DJSAD03 Humidity 습도센서 측정값이 80% 초과 441 1827 6201 5.4 84.5 6952 287.816 181.957 0 2024-01-03 16:39:40.000
DJSAD01 Humidity 습도센서 측정값이 80% 초과 463 1457 7098 3.6 88.7 7322 303.111 191.627 0 2024-01-03 16:39:40.000
DJSAD02 Humidity 습도센서 측정값이 80% 초과 384 1134 4385 4.3 87.7 7645 316.511 200.098 11 2024-01-03 16:39:39.000
DJSSD05 Temperature 온도센서 측정값이 0도 미만 838 2553 4911 -45.4 43.5 5526 769.243 486.315 0 2024-01-03 16:39:33.000
DJSSD04 Temperature 온도센서 상태 이상 0 8200 0 -999 -999 -120 -16.702 0 31 2024-01-03 16:39:33.000
DJHNR01 Humidity 습도센서 측정값이 80% 초과 호퍼 471 4307 4914 7 99.9 11072 472.829 298.922 13 2024-01-03 16:39:33.000
DJSAD07 Humidity 습도센서 측정값이 80% 초과 654 2536 2687 6.2 85.5 5043 717.59 453.66 0 2024-01-03 16:39:32.000
DJSAD08 Humidity 습도센서 측정값이 80% 초과 592 2549 4966 9.1 82.9 5030 715.746 452.494 12 2024-01-03 16:39:32.000

[첫 페이지] [10200] [10201] [10202] [10203] 10204 [10205] [10206] [10207] [10208] [마지막 페이지]